createdAt,value
2022-10-22T00:00:25.426Z,1.30
2022-10-22T00:05:15.173Z,1.40
2022-10-22T00:10:08.557Z,1.30
2022-10-22T00:14:58.389Z,1.30
2022-10-22T00:19:48.287Z,1.45
2022-10-22T00:24:38.885Z,1.30
2022-10-22T00:29:31.334Z,1.10
2022-10-22T00:34:22.396Z,1.27
2022-10-22T00:39:13.129Z,1.20
2022-10-22T00:44:09.961Z,1.25
2022-10-22T00:49:05.239Z,1.23
2022-10-22T00:53:58.609Z,1.75
2022-10-22T00:58:51.994Z,1.20
2022-10-22T01:03:41.621Z,1.20
2022-10-22T01:08:46.217Z,1.60
2022-10-22T01:13:49.529Z,1.52
2022-10-22T01:18:48.332Z,1.57
2022-10-22T01:24:07.061Z,1.20
2022-10-22T01:29:05.415Z,1.40
2022-10-22T01:33:57.634Z,1.57
2022-10-22T01:38:49.295Z,1.40
2022-10-22T01:43:39.143Z,1.23
2022-10-22T01:48:45.462Z,1.38
2022-10-22T01:59:01.117Z,1.17
2022-10-22T02:04:02.335Z,1.40
2022-10-22T02:08:55.473Z,1.37
2022-10-22T02:13:49.191Z,1.42
2022-10-22T02:18:43.590Z,1.20
2022-10-22T02:23:37.025Z,0.82
2022-10-22T02:28:40.055Z,0.90
2022-10-22T02:33:33.498Z,1.38
2022-10-22T02:38:24.987Z,1.17
2022-10-22T02:43:18.074Z,0.88
2022-10-22T02:48:09.518Z,0.98
2022-10-22T02:53:00.489Z,1.30
2022-10-22T02:57:54.416Z,0.90
2022-10-22T03:02:47.776Z,0.80
2022-10-22T03:07:39.114Z,1.07
2022-10-22T03:12:30.359Z,0.90
2022-10-22T03:17:25.098Z,1.00
2022-10-22T03:22:24.739Z,1.10
2022-10-22T03:27:21.051Z,1.10
2022-10-22T03:32:11.957Z,1.20
2022-10-22T03:37:04.124Z,1.38
2022-10-22T03:41:56.807Z,1.17
2022-10-22T03:46:47.708Z,1.13
2022-10-22T03:51:38.547Z,1.15
2022-10-22T03:56:29.597Z,0.90
2022-10-22T04:01:25.759Z,0.88
2022-10-22T04:06:17.132Z,0.98
2022-10-22T04:11:11.563Z,1.00
2022-10-22T04:16:13.103Z,1.33
2022-10-22T04:21:09.315Z,1.27
2022-10-22T04:26:05.010Z,1.33
2022-10-22T04:30:55.738Z,1.42
2022-10-22T04:35:46.293Z,1.10
2022-10-22T04:40:39.100Z,1.20
2022-10-22T04:45:29.785Z,1.30
2022-10-22T04:50:20.441Z,1.30
2022-10-22T04:55:12.458Z,1.10
2022-10-22T05:00:09.269Z,1.10
2022-10-22T05:05:00.037Z,1.17
2022-10-22T05:09:50.568Z,1.07
2022-10-22T05:14:44.036Z,1.35
2022-10-22T05:19:38.879Z,0.90
2022-10-22T05:24:33.314Z,1.00
2022-10-22T05:29:28.979Z,1.20
2022-10-22T05:34:22.493Z,1.10
2022-10-22T05:39:16.683Z,1.17
2022-10-22T05:44:08.618Z,1.00
2022-10-22T05:49:02.699Z,0.90
2022-10-22T05:53:55.988Z,1.20
2022-10-22T05:58:52.649Z,1.15
2022-10-22T06:03:53.221Z,0.80
2022-10-22T06:08:44.543Z,1.00
2022-10-22T06:13:38.695Z,1.10
2022-10-22T06:18:49.389Z,1.17
2022-10-22T06:23:40.772Z,1.30
2022-10-22T06:28:31.954Z,0.90
2022-10-22T06:33:38.568Z,1.30
2022-10-22T06:38:34.870Z,0.70
2022-10-22T06:43:26.041Z,1.10
2022-10-22T06:48:16.453Z,1.02
2022-10-22T06:53:09.860Z,0.90
2022-10-22T06:58:03.325Z,0.85
2022-10-22T07:03:01.279Z,0.77
2022-10-22T07:07:52.111Z,0.93
2022-10-22T07:12:48.172Z,0.60
2022-10-22T07:17:42.183Z,1.13
2022-10-22T07:22:32.957Z,0.70
2022-10-22T07:27:23.476Z,0.95
2022-10-22T07:32:15.008Z,0.80
2022-10-22T07:37:08.287Z,0.60
2022-10-22T07:41:58.721Z,0.75
2022-10-22T07:46:49.144Z,0.70
2022-10-22T07:51:42.929Z,0.60
2022-10-22T07:56:36.090Z,1.07
2022-10-22T08:01:26.779Z,0.88
2022-10-22T08:06:17.858Z,0.65
2022-10-22T08:11:08.512Z,0.63
2022-10-22T08:16:02.437Z,1.10
2022-10-22T08:20:53.396Z,0.77
2022-10-22T08:25:43.917Z,0.90
2022-10-22T08:30:39.288Z,0.70
2022-10-22T08:35:32.828Z,0.57
2022-10-22T08:40:28.625Z,0.70
2022-10-22T08:45:26.244Z,0.40
2022-10-22T08:50:24.868Z,0.98
2022-10-22T08:55:20.688Z,0.88
2022-10-22T09:00:17.611Z,0.70
2022-10-22T09:05:21.339Z,0.80
2022-10-22T09:10:17.195Z,0.70
2022-10-22T09:15:17.024Z,0.80
2022-10-22T09:20:17.620Z,1.03
2022-10-22T09:25:22.508Z,0.70
2022-10-22T09:30:22.420Z,0.70
2022-10-22T09:35:25.382Z,0.60
2022-10-22T09:40:23.785Z,0.77
2022-10-22T09:45:24.088Z,0.50
2022-10-22T09:50:25.975Z,0.75
2022-10-22T09:55:23.627Z,0.80
2022-10-22T10:00:27.019Z,0.70
2022-10-22T10:05:23.176Z,0.80
2022-10-22T10:10:23.113Z,0.95
2022-10-22T10:15:23.630Z,0.60
2022-10-22T10:20:31.380Z,0.55
2022-10-22T10:25:47.013Z,0.95
2022-10-22T10:30:48.202Z,0.70
2022-10-22T10:35:56.456Z,0.90
2022-10-22T10:40:53.657Z,1.10
2022-10-22T10:46:03.002Z,1.03
2022-10-22T10:51:05.716Z,1.00
2022-10-22T10:56:04.539Z,0.70
2022-10-22T11:01:03.528Z,0.93
2022-10-22T11:05:58.829Z,0.70
2022-10-22T11:10:53.813Z,0.85
2022-10-22T11:15:49.355Z,1.20
2022-10-22T11:21:06.439Z,0.82
2022-10-22T11:25:57.060Z,1.00
2022-10-22T11:30:52.350Z,1.25
2022-10-22T11:35:53.280Z,0.90
2022-10-22T11:40:50.767Z,1.20
2022-10-22T11:45:44.710Z,1.00
2022-10-22T11:51:00.244Z,0.98
2022-10-22T11:55:55.927Z,1.33
2022-10-22T12:00:51.333Z,1.15
2022-10-22T12:05:43.404Z,1.00
2022-10-22T12:10:51.467Z,1.55
2022-10-22T12:15:50.189Z,1.40
2022-10-22T12:20:42.642Z,1.05
2022-10-22T12:25:37.680Z,1.00
2022-10-22T12:30:31.014Z,0.95
2022-10-22T12:35:24.649Z,0.93
2022-10-22T12:40:23.568Z,1.27
2022-10-22T12:45:16.963Z,0.82
2022-10-22T12:50:09.737Z,0.70
2022-10-22T12:55:00.801Z,1.17
2022-10-22T12:59:55.150Z,0.80
2022-10-22T13:05:17.226Z,0.80
2022-10-22T13:10:21.219Z,0.88
2022-10-22T13:15:37.637Z,0.60
2022-10-22T13:20:30.804Z,0.95
2022-10-22T13:25:26.570Z,1.00
2022-10-22T13:30:23.105Z,0.90
2022-10-22T13:35:20.258Z,1.10
2022-10-22T13:40:18.391Z,0.90
2022-10-22T13:45:10.724Z,0.90
2022-10-22T13:50:04.628Z,0.98
2022-10-22T13:54:54.975Z,0.65
2022-10-22T13:59:53.075Z,0.70
2022-10-22T14:04:44.700Z,0.80
2022-10-22T14:09:35.210Z,1.08
2022-10-22T14:14:25.620Z,0.70
2022-10-22T14:19:20.950Z,0.60
2022-10-22T14:24:13.583Z,0.90
2022-10-22T14:29:12.069Z,0.50
2022-10-22T14:34:03.048Z,0.70
2022-10-22T14:38:56.112Z,0.80
2022-10-22T14:43:46.374Z,0.50
2022-10-22T14:48:36.508Z,0.70
2022-10-22T14:53:26.874Z,0.60
2022-10-22T14:58:20.169Z,0.77
2022-10-22T15:03:12.122Z,0.50
2022-10-22T15:08:02.184Z,0.70
2022-10-22T15:12:52.769Z,0.60
2022-10-22T15:17:46.188Z,0.70
2022-10-22T15:22:38.046Z,0.88
2022-10-22T15:27:28.565Z,0.82
2022-10-22T15:32:19.494Z,0.80
2022-10-22T15:37:15.564Z,0.90
2022-10-22T15:42:06.974Z,1.00
2022-10-22T15:46:58.260Z,0.90
2022-10-22T15:51:48.996Z,1.20
2022-10-22T15:56:42.998Z,1.40
2022-10-22T16:01:35.349Z,1.30
2022-10-22T16:06:26.000Z,1.98
2022-10-22T16:11:16.827Z,1.67
2022-10-22T16:16:11.976Z,0.90
2022-10-22T16:21:02.925Z,1.10
2022-10-22T16:25:53.364Z,1.13
2022-10-22T16:30:43.458Z,4.95
2022-10-22T16:35:36.748Z,2.85
2022-10-22T16:40:29.341Z,1.90
2022-10-22T16:45:21.314Z,1.60
2022-10-22T16:50:12.167Z,1.65
2022-10-22T16:55:05.855Z,2.40
2022-10-22T16:59:56.679Z,2.28
2022-10-22T17:04:46.872Z,2.10
2022-10-22T17:09:38.381Z,3.13
2022-10-22T17:14:31.573Z,3.47
2022-10-22T17:19:27.513Z,3.42
2022-10-22T17:24:18.135Z,4.20
2022-10-22T17:29:09.162Z,5.17
2022-10-22T17:34:03.215Z,5.20
2022-10-22T17:39:02.026Z,4.95
2022-10-22T17:43:53.197Z,4.50
2022-10-22T17:48:44.311Z,3.50
2022-10-22T17:53:43.117Z,3.40
2022-10-22T17:58:34.556Z,4.18
2022-10-22T18:03:32.246Z,3.83
2022-10-22T18:08:23.649Z,3.93
2022-10-22T18:13:23.712Z,3.25
2022-10-22T18:18:14.745Z,3.92
2022-10-22T18:23:08.046Z,4.07
2022-10-22T18:27:58.533Z,2.33
2022-10-22T18:32:52.158Z,2.50
2022-10-22T18:37:47.870Z,3.35
2022-10-22T18:42:39.763Z,2.42
2022-10-22T18:47:30.492Z,2.15
2022-10-22T18:52:24.985Z,2.67
2022-10-22T18:57:16.913Z,3.10
2022-10-22T19:02:07.500Z,3.03
2022-10-22T19:07:00.697Z,4.53
2022-10-22T19:11:55.329Z,5.50
2022-10-22T19:16:46.749Z,6.30
2022-10-22T19:21:37.923Z,5.27
2022-10-22T19:26:32.134Z,5.30
2022-10-22T19:31:28.466Z,5.85
2022-10-22T19:36:21.071Z,6.07
2022-10-22T19:41:16.601Z,6.13
2022-10-22T19:46:08.947Z,5.47
2022-10-22T19:51:05.867Z,5.90
2022-10-22T19:56:00.439Z,5.78
2022-10-22T20:00:53.934Z,5.00
2022-10-22T20:05:45.035Z,8.43
2022-10-22T20:10:38.455Z,10.90
2022-10-22T20:15:28.963Z,9.25
2022-10-22T20:20:21.880Z,6.30
2022-10-22T20:25:16.218Z,5.97
2022-10-22T20:30:11.347Z,6.45
2022-10-22T20:35:03.824Z,7.63
2022-10-22T20:39:56.976Z,8.20
2022-10-22T20:44:47.939Z,8.18
2022-10-22T20:49:41.400Z,7.88
2022-10-22T20:54:33.963Z,6.07
2022-10-22T20:59:24.943Z,5.70
2022-10-22T21:04:16.612Z,5.93
2022-10-22T21:09:16.022Z,5.60
2022-10-22T21:14:07.727Z,6.45
2022-10-22T21:18:59.792Z,7.72
2022-10-22T21:23:53.256Z,8.00
2022-10-22T21:28:46.379Z,6.93
2022-10-22T21:33:40.722Z,6.97
2022-10-22T21:38:31.337Z,7.55
2022-10-22T21:43:22.385Z,7.10
2022-10-22T21:48:24.958Z,6.97
2022-10-22T21:53:17.077Z,6.57
2022-10-22T21:58:07.705Z,5.93
2022-10-22T22:02:59.491Z,6.28
2022-10-22T22:07:52.845Z,5.93
2022-10-22T22:12:43.396Z,5.30
2022-10-22T22:17:33.893Z,5.90
2022-10-22T22:22:28.152Z,5.83
2022-10-22T22:27:26.214Z,6.47
2022-10-22T22:32:18.706Z,5.88
2022-10-22T22:37:10.441Z,6.77
2022-10-22T22:42:01.482Z,6.93
2022-10-22T22:46:54.538Z,7.23
2022-10-22T22:51:44.948Z,7.10
2022-10-22T22:56:37.356Z,6.18
2022-10-22T23:01:29.681Z,6.50
2022-10-22T23:06:23.098Z,5.95
2022-10-22T23:11:16.110Z,6.38
2022-10-22T23:16:09.462Z,7.07
2022-10-22T23:21:00.068Z,6.97
2022-10-22T23:25:53.962Z,6.72
2022-10-22T23:30:47.363Z,5.78
2022-10-22T23:35:37.437Z,7.70
2022-10-22T23:40:29.688Z,7.10
2022-10-22T23:45:22.756Z,7.10
2022-10-22T23:50:13.517Z,7.97
2022-10-22T23:55:04.939Z,6.97
2022-10-22T23:59:57.029Z,7.73
